sensor_id;sensor_type;location;lat;lon;timestamp;pressure;altitude;pressure_sealevel;temperature
61595;BMP280;47397;48.194;11.632;2023-04-06T00:00:57;96184.69;;;-0.37
61595;BMP280;47397;48.194;11.632;2023-04-06T00:01:57;96199.47;;;-0.44
61595;BMP280;47397;48.194;11.632;2023-04-06T00:02:58;96191.78;;;-0.53
61595;BMP280;47397;48.194;11.632;2023-04-06T00:03:58;96194.53;;;-0.43
61595;BMP280;47397;48.194;11.632;2023-04-06T00:04:58;96187.88;;;-0.42
61595;BMP280;47397;48.194;11.632;2023-04-06T00:05:59;96192.88;;;-0.42
61595;BMP280;47397;48.194;11.632;2023-04-06T00:07:01;96194.97;;;-0.59
61595;BMP280;47397;48.194;11.632;2023-04-06T00:08:01;96189.31;;;-0.52
61595;BMP280;47397;48.194;11.632;2023-04-06T00:09:02;96190.06;;;-0.56
61595;BMP280;47397;48.194;11.632;2023-04-06T00:10:04;96184.22;;;-0.56
61595;BMP280;47397;48.194;11.632;2023-04-06T00:11:04;96182.03;;;-0.43
61595;BMP280;47397;48.194;11.632;2023-04-06T00:12:05;96182.94;;;-0.39
61595;BMP280;47397;48.194;11.632;2023-04-06T00:13:06;96182.88;;;-0.42
61595;BMP280;47397;48.194;11.632;2023-04-06T00:14:06;96176.13;;;-0.46
61595;BMP280;47397;48.194;11.632;2023-04-06T00:15:08;96181.13;;;-0.46
61595;BMP280;47397;48.194;11.632;2023-04-06T00:16:08;96182.63;;;-0.53
61595;BMP280;47397;48.194;11.632;2023-04-06T00:17:09;96185.84;;;-0.58
61595;BMP280;47397;48.194;11.632;2023-04-06T00:18:09;96179.22;;;-0.56
61595;BMP280;47397;48.194;11.632;2023-04-06T00:19:09;96178.66;;;-0.45
61595;BMP280;47397;48.194;11.632;2023-04-06T00:20:10;96183.44;;;-0.54
61595;BMP280;47397;48.194;11.632;2023-04-06T00:21:11;96182.22;;;-0.35
61595;BMP280;47397;48.194;11.632;2023-04-06T00:22:14;96184.00;;;-0.31
61595;BMP280;47397;48.194;11.632;2023-04-06T00:23:14;96184.75;;;-0.34
61595;BMP280;47397;48.194;11.632;2023-04-06T00:24:14;96185.03;;;-0.21
61595;BMP280;47397;48.194;11.632;2023-04-06T00:25:15;96180.53;;;-0.36
61595;BMP280;47397;48.194;11.632;2023-04-06T00:26:15;96178.78;;;-0.39
61595;BMP280;47397;48.194;11.632;2023-04-06T00:27:16;96181.50;;;-0.31
61595;BMP280;47397;48.194;11.632;2023-04-06T00:28:16;96184.38;;;-0.49
61595;BMP280;47397;48.194;11.632;2023-04-06T00:29:17;96182.09;;;-0.40
61595;BMP280;47397;48.194;11.632;2023-04-06T00:30:17;96177.81;;;-0.45
61595;BMP280;47397;48.194;11.632;2023-04-06T00:31:18;96175.44;;;-0.39
61595;BMP280;47397;48.194;11.632;2023-04-06T00:32:18;96172.78;;;-0.47
61595;BMP280;47397;48.194;11.632;2023-04-06T00:33:19;96187.38;;;-0.64
61595;BMP280;47397;48.194;11.632;2023-04-06T00:34:19;96180.91;;;-0.55
61595;BMP280;47397;48.194;11.632;2023-04-06T00:35:20;96178.59;;;-0.48
61595;BMP280;47397;48.194;11.632;2023-04-06T00:36:21;96185.06;;;-0.56
61595;BMP280;47397;48.194;11.632;2023-04-06T00:37:23;96183.22;;;-0.63
61595;BMP280;47397;48.194;11.632;2023-04-06T00:38:23;96183.94;;;-0.69
61595;BMP280;47397;48.194;11.632;2023-04-06T00:39:24;96175.44;;;-0.75
61595;BMP280;47397;48.194;11.632;2023-04-06T00:40:24;96183.13;;;-0.68
61595;BMP280;47397;48.194;11.632;2023-04-06T00:41:25;96176.34;;;-0.73
61595;BMP280;47397;48.194;11.632;2023-04-06T00:42:25;96182.22;;;-0.71
61595;BMP280;47397;48.194;11.632;2023-04-06T00:43:26;96180.53;;;-0.72
61595;BMP280;47397;48.194;11.632;2023-04-06T00:44:26;96182.88;;;-0.77
61595;BMP280;47397;48.194;11.632;2023-04-06T00:45:27;96184.09;;;-0.63
61595;BMP280;47397;48.194;11.632;2023-04-06T00:46:28;96185.47;;;-0.74
61595;BMP280;47397;48.194;11.632;2023-04-06T00:47:28;96178.00;;;-0.74
61595;BMP280;47397;48.194;11.632;2023-04-06T00:48:29;96181.66;;;-0.59
61595;BMP280;47397;48.194;11.632;2023-04-06T00:49:29;96189.03;;;-0.64
61595;BMP280;47397;48.194;11.632;2023-04-06T00:50:30;96182.25;;;-0.70
61595;BMP280;47397;48.194;11.632;2023-04-06T00:51:30;96177.94;;;-0.75
61595;BMP280;47397;48.194;11.632;2023-04-06T00:52:33;96181.25;;;-0.75
61595;BMP280;47397;48.194;11.632;2023-04-06T00:53:33;96178.63;;;-0.81
61595;BMP280;47397;48.194;11.632;2023-04-06T00:54:34;96179.41;;;-0.83
61595;BMP280;47397;48.194;11.632;2023-04-06T00:55:34;96182.84;;;-0.78
61595;BMP280;47397;48.194;11.632;2023-04-06T00:56:35;96183.63;;;-0.81
61595;BMP280;47397;48.194;11.632;2023-04-06T00:57:36;96175.44;;;-0.75
61595;BMP280;47397;48.194;11.632;2023-04-06T00:58:36;96178.78;;;-0.75
61595;BMP280;47397;48.194;11.632;2023-04-06T00:59:37;96180.56;;;-0.71
61595;BMP280;47397;48.194;11.632;2023-04-06T01:00:37;96183.16;;;-0.66
61595;BMP280;47397;48.194;11.632;2023-04-06T01:01:38;96184.28;;;-0.53
61595;BMP280;47397;48.194;11.632;2023-04-06T01:02:38;96182.50;;;-0.59
61595;BMP280;47397;48.194;11.632;2023-04-06T01:03:38;96184.31;;;-0.52
61595;BMP280;47397;48.194;11.632;2023-04-06T01:04:39;96182.59;;;-0.54
61595;BMP280;47397;48.194;11.632;2023-04-06T01:05:40;96185.06;;;-0.56
61595;BMP280;47397;48.194;11.632;2023-04-06T01:06:40;96185.91;;;-0.55
61595;BMP280;47397;48.194;11.632;2023-04-06T01:07:42;96178.41;;;-0.55
61595;BMP280;47397;48.194;11.632;2023-04-06T01:08:42;96173.16;;;-0.68
61595;BMP280;47397;48.194;11.632;2023-04-06T01:09:43;96182.00;;;-0.79
61595;BMP280;47397;48.194;11.632;2023-04-06T01:10:43;96180.09;;;-0.89
61595;BMP280;47397;48.194;11.632;2023-04-06T01:11:44;96175.94;;;-0.88
61595;BMP280;47397;48.194;11.632;2023-04-06T01:12:44;96183.44;;;-0.88
61595;BMP280;47397;48.194;11.632;2023-04-06T01:13:46;96181.50;;;-1.00
61595;BMP280;47397;48.194;11.632;2023-04-06T01:14:46;96179.44;;;-0.82
61595;BMP280;47397;48.194;11.632;2023-04-06T01:15:47;96180.91;;;-0.90
61595;BMP280;47397;48.194;11.632;2023-04-06T01:16:47;96180.31;;;-0.80
61595;BMP280;47397;48.194;11.632;2023-04-06T01:17:48;96173.84;;;-0.73
61595;BMP280;47397;48.194;11.632;2023-04-06T01:18:48;96173.78;;;-0.75
61595;BMP280;47397;48.194;11.632;2023-04-06T01:19:49;96173.78;;;-0.75
61595;BMP280;47397;48.194;11.632;2023-04-06T01:20:49;96173.75;;;-0.76
61595;BMP280;47397;48.194;11.632;2023-04-06T01:21:50;96173.56;;;-0.84
61595;BMP280;47397;48.194;11.632;2023-04-06T01:22:51;96167.88;;;-0.78
61595;BMP280;47397;48.194;11.632;2023-04-06T01:23:52;96175.34;;;-0.78
61595;BMP280;47397;48.194;11.632;2023-04-06T01:24:52;96171.88;;;-0.85
61595;BMP280;47397;48.194;11.632;2023-04-06T01:25:53;96182.44;;;-0.95
61595;BMP280;47397;48.194;11.632;2023-04-06T01:26:53;96181.50;;;-1.00
61595;BMP280;47397;48.194;11.632;2023-04-06T01:27:54;96173.97;;;-1.02
61595;BMP280;47397;48.194;11.632;2023-04-06T01:28:54;96177.53;;;-0.92
61595;BMP280;47397;48.194;11.632;2023-04-06T01:29:55;96169.75;;;-1.04
61595;BMP280;47397;48.194;11.632;2023-04-06T01:30:55;96173.34;;;-0.93
61595;BMP280;47397;48.194;11.632;2023-04-06T01:31:55;96176.28;;;-1.09
61595;BMP280;47397;48.194;11.632;2023-04-06T01:32:56;96169.66;;;-1.07
61595;BMP280;47397;48.194;11.632;2023-04-06T01:33:56;96180.22;;;-1.16
61595;BMP280;47397;48.194;11.632;2023-04-06T01:34:57;96172.16;;;-1.07
61595;BMP280;47397;48.194;11.632;2023-04-06T01:35:57;96172.75;;;-1.16
61595;BMP280;47397;48.194;11.632;2023-04-06T01:36:58;96168.09;;;-1.04
61595;BMP280;47397;48.194;11.632;2023-04-06T01:38:00;96164.69;;;-1.07
61595;BMP280;47397;48.194;11.632;2023-04-06T01:39:00;96167.44;;;-0.97
61595;BMP280;47397;48.194;11.632;2023-04-06T01:40:01;96168.34;;;-0.93
61595;BMP280;47397;48.194;11.632;2023-04-06T01:41:01;96168.44;;;-0.90
61595;BMP280;47397;48.194;11.632;2023-04-06T01:42:02;96166.84;;;-0.86
61595;BMP280;47397;48.194;11.632;2023-04-06T01:43:02;96162.47;;;-0.95
61595;BMP280;47397;48.194;11.632;2023-04-06T01:44:03;96166.59;;;-0.97
61595;BMP280;47397;48.194;11.632;2023-04-06T01:45:05;96159.00;;;-1.02
61595;BMP280;47397;48.194;11.632;2023-04-06T01:46:05;96163.91;;;-1.05
61595;BMP280;47397;48.194;11.632;2023-04-06T01:47:06;96171.09;;;-1.15
61595;BMP280;47397;48.194;11.632;2023-04-06T01:48:07;96163.03;;;-1.07
61595;BMP280;47397;48.194;11.632;2023-04-06T01:49:07;96165.00;;;-0.93
61595;BMP280;47397;48.194;11.632;2023-04-06T01:50:08;96166.56;;;-0.99
61595;BMP280;47397;48.194;11.632;2023-04-06T01:51:09;96160.69;;;-1.01
61595;BMP280;47397;48.194;11.632;2023-04-06T01:52:09;96162.25;;;-1.04
61595;BMP280;47397;48.194;11.632;2023-04-06T01:53:11;96151.63;;;-0.97
61595;BMP280;47397;48.194;11.632;2023-04-06T01:54:12;96158.88;;;-1.06
61595;BMP280;47397;48.194;11.632;2023-04-06T01:55:12;96161.34;;;-1.08
61595;BMP280;47397;48.194;11.632;2023-04-06T01:56:13;96160.50;;;-1.08
61595;BMP280;47397;48.194;11.632;2023-04-06T01:57:13;96158.88;;;-1.06
61595;BMP280;47397;48.194;11.632;2023-04-06T01:58:14;96154.66;;;-1.09
61595;BMP280;47397;48.194;11.632;2023-04-06T01:59:14;96169.19;;;-1.26
61595;BMP280;47397;48.194;11.632;2023-04-06T02:00:15;96165.97;;;-1.21
61595;BMP280;47397;48.194;11.632;2023-04-06T02:01:16;96167.66;;;-1.20
61595;BMP280;47397;48.194;11.632;2023-04-06T02:02:17;96165.00;;;-1.27
61595;BMP280;47397;48.194;11.632;2023-04-06T02:03:17;96160.16;;;-1.20
61595;BMP280;47397;48.194;11.632;2023-04-06T02:04:18;96157.88;;;-1.13
61595;BMP280;47397;48.194;11.632;2023-04-06T02:05:19;96162.25;;;-1.04
61595;BMP280;47397;48.194;11.632;2023-04-06T02:06:19;96157.06;;;-1.12
61595;BMP280;47397;48.194;11.632;2023-04-06T02:07:20;96158.41;;;-1.24
61595;BMP280;47397;48.194;11.632;2023-04-06T02:08:22;96159.13;;;-1.29
61595;BMP280;47397;48.194;11.632;2023-04-06T02:09:22;96159.31;;;-1.21
61595;BMP280;47397;48.194;11.632;2023-04-06T02:10:23;96165.13;;;-1.22
61595;BMP280;47397;48.194;11.632;2023-04-06T02:11:23;96156.78;;;-1.22
61595;BMP280;47397;48.194;11.632;2023-04-06T02:12:24;96152.84;;;-1.14
61595;BMP280;47397;48.194;11.632;2023-04-06T02:13:24;96158.47;;;-1.21
61595;BMP280;47397;48.194;11.632;2023-04-06T02:14:25;96163.34;;;-1.26
61595;BMP280;47397;48.194;11.632;2023-04-06T02:15:26;96158.38;;;-1.26
61595;BMP280;47397;48.194;11.632;2023-04-06T02:16:26;96162.66;;;-1.20
61595;BMP280;47397;48.194;11.632;2023-04-06T02:17:27;96158.44;;;-1.23
61595;BMP280;47397;48.194;11.632;2023-04-06T02:18:27;96164.19;;;-1.26
61595;BMP280;47397;48.194;11.632;2023-04-06T02:19:28;96159.09;;;-1.30
61595;BMP280;47397;48.194;11.632;2023-04-06T02:20:28;96153.25;;;-1.31
61595;BMP280;47397;48.194;11.632;2023-04-06T02:21:35;96159.13;;;-1.29
61595;BMP280;47397;48.194;11.632;2023-04-06T02:22:35;96158.31;;;-1.28
61595;BMP280;47397;48.194;11.632;2023-04-06T02:23:37;96153.59;;;-1.17
61595;BMP280;47397;48.194;11.632;2023-04-06T02:24:38;96162.69;;;-1.19
61595;BMP280;47397;48.194;11.632;2023-04-06T02:25:38;96159.38;;;-1.19
61595;BMP280;47397;48.194;11.632;2023-04-06T02:26:39;96162.50;;;-1.27
61595;BMP280;47397;48.194;11.632;2023-04-06T02:27:39;96158.31;;;-1.28
61595;BMP280;47397;48.194;11.632;2023-04-06T02:28:40;96157.53;;;-1.27
61595;BMP280;47397;48.194;11.632;2023-04-06T02:29:40;96161.75;;;-1.24
61595;BMP280;47397;48.194;11.632;2023-04-06T02:30:40;96160.78;;;-1.29
61595;BMP280;47397;48.194;11.632;2023-04-06T02:31:41;96164.34;;;-1.51
61595;BMP280;47397;48.194;11.632;2023-04-06T02:32:41;96156.44;;;-1.36
61595;BMP280;47397;48.194;11.632;2023-04-06T02:33:42;96158.44;;;-1.54
61595;BMP280;47397;48.194;11.632;2023-04-06T02:34:42;96155.53;;;-1.40
61595;BMP280;47397;48.194;11.632;2023-04-06T02:35:44;96152.75;;;-1.49
61595;BMP280;47397;48.194;11.632;2023-04-06T02:36:45;96151.22;;;-1.45
61595;BMP280;47397;48.194;11.632;2023-04-06T02:37:45;96154.59;;;-1.43
61595;BMP280;47397;48.194;11.632;2023-04-06T02:38:47;96153.84;;;-1.41
61595;BMP280;47397;48.194;11.632;2023-04-06T02:39:47;96151.53;;;-1.33
61595;BMP280;47397;48.194;11.632;2023-04-06T02:40:48;96157.94;;;-1.43
61595;BMP280;47397;48.194;11.632;2023-04-06T02:41:48;96154.81;;;-1.36
61595;BMP280;47397;48.194;11.632;2023-04-06T02:42:49;96154.53;;;-1.46
61595;BMP280;47397;48.194;11.632;2023-04-06T02:43:49;96148.66;;;-1.48
61595;BMP280;47397;48.194;11.632;2023-04-06T02:44:50;96153.69;;;-1.47
61595;BMP280;47397;48.194;11.632;2023-04-06T02:45:50;96148.66;;;-1.48
61595;BMP280;47397;48.194;11.632;2023-04-06T02:46:50;96147.00;;;-1.48
61595;BMP280;47397;48.194;11.632;2023-04-06T02:47:51;96152.59;;;-1.55
61595;BMP280;47397;48.194;11.632;2023-04-06T02:48:51;96146.25;;;-1.45
61595;BMP280;47397;48.194;11.632;2023-04-06T02:49:52;96149.66;;;-1.42
61595;BMP280;47397;48.194;11.632;2023-04-06T02:50:52;96147.59;;;-1.57
61595;BMP280;47397;48.194;11.632;2023-04-06T02:51:53;96150.03;;;-1.58
61595;BMP280;47397;48.194;11.632;2023-04-06T02:52:53;96151.81;;;-1.54
61595;BMP280;47397;48.194;11.632;2023-04-06T02:53:55;96147.53;;;-1.58
61595;BMP280;47397;48.194;11.632;2023-04-06T02:54:55;96150.88;;;-1.58
61595;BMP280;47397;48.194;11.632;2023-04-06T02:55:56;96148.44;;;-1.56
61595;BMP280;47397;48.194;11.632;2023-04-06T02:56:56;96145.13;;;-1.55
61595;BMP280;47397;48.194;11.632;2023-04-06T02:57:57;96147.66;;;-1.53
61595;BMP280;47397;48.194;11.632;2023-04-06T02:58:57;96146.06;;;-1.51
61595;BMP280;47397;48.194;11.632;2023-04-06T02:59:58;96150.28;;;-1.49
61595;BMP280;47397;48.194;11.632;2023-04-06T03:00:58;96151.06;;;-1.50
61595;BMP280;47397;48.194;11.632;2023-04-06T03:01:59;96150.03;;;-1.58
61595;BMP280;47397;48.194;11.632;2023-04-06T03:02:59;96150.06;;;-1.57
61595;BMP280;47397;48.194;11.632;2023-04-06T03:03:59;96151.56;;;-1.63
61595;BMP280;47397;48.194;11.632;2023-04-06T03:05:00;96146.69;;;-1.59
61595;BMP280;47397;48.194;11.632;2023-04-06T03:06:00;96146.66;;;-1.60
61595;BMP280;47397;48.194;11.632;2023-04-06T03:07:01;96148.22;;;-1.64
61595;BMP280;47397;48.194;11.632;2023-04-06T03:08:01;96150.81;;;-1.61
61595;BMP280;47397;48.194;11.632;2023-04-06T03:09:03;96149.19;;;-1.59
61595;BMP280;47397;48.194;11.632;2023-04-06T03:10:05;96155.06;;;-1.57
61595;BMP280;47397;48.194;11.632;2023-04-06T03:11:05;96147.59;;;-1.57
61595;BMP280;47397;48.194;11.632;2023-04-06T03:12:06;96151.66;;;-1.60
61595;BMP280;47397;48.194;11.632;2023-04-06T03:13:07;96149.16;;;-1.60
61595;BMP280;47397;48.194;11.632;2023-04-06T03:14:07;96150.97;;;-1.54
61595;BMP280;47397;48.194;11.632;2023-04-06T03:15:09;96151.34;;;-1.71
61595;BMP280;47397;48.194;11.632;2023-04-06T03:16:09;96150.44;;;-1.74
61595;BMP280;47397;48.194;11.632;2023-04-06T03:17:10;96154.22;;;-1.87
61595;BMP280;47397;48.194;11.632;2023-04-06T03:18:10;96149.22;;;-1.87
61595;BMP280;47397;48.194;11.632;2023-04-06T03:19:11;96155.59;;;-1.97
61595;BMP280;47397;48.194;11.632;2023-04-06T03:20:12;96155.13;;;-1.85
61595;BMP280;47397;48.194;11.632;2023-04-06T03:21:12;96154.38;;;-1.82
61595;BMP280;47397;48.194;11.632;2023-04-06T03:22:13;96156.53;;;-1.93
61595;BMP280;47397;48.194;11.632;2023-04-06T03:23:13;96150.53;;;-2.00
61595;BMP280;47397;48.194;11.632;2023-04-06T03:24:15;96152.69;;;-1.83
61595;BMP280;47397;48.194;11.632;2023-04-06T03:25:15;96145.00;;;-1.90
61595;BMP280;47397;48.194;11.632;2023-04-06T03:26:16;96145.19;;;-1.83
61595;BMP280;47397;48.194;11.632;2023-04-06T03:27:16;96155.47;;;-1.73
61595;BMP280;47397;48.194;11.632;2023-04-06T03:28:17;96153.66;;;-1.78
61595;BMP280;47397;48.194;11.632;2023-04-06T03:29:17;96148.69;;;-1.77
61595;BMP280;47397;48.194;11.632;2023-04-06T03:30:18;96152.13;;;-1.73
61595;BMP280;47397;48.194;11.632;2023-04-06T03:31:18;96155.69;;;-1.64
61595;BMP280;47397;48.194;11.632;2023-04-06T03:32:19;96155.00;;;-1.58
61595;BMP280;47397;48.194;11.632;2023-04-06T03:33:19;96152.41;;;-1.63
61595;BMP280;47397;48.194;11.632;2023-04-06T03:34:20;96144.78;;;-1.69
61595;BMP280;47397;48.194;11.632;2023-04-06T03:35:20;96148.78;;;-1.74
61595;BMP280;47397;48.194;11.632;2023-04-06T03:36:20;96152.28;;;-1.67
61595;BMP280;47397;48.194;11.632;2023-04-06T03:37:21;96148.50;;;-1.84
61595;BMP280;47397;48.194;11.632;2023-04-06T03:38:21;96151.00;;;-1.84
61595;BMP280;47397;48.194;11.632;2023-04-06T03:39:23;96149.81;;;-1.96
61595;BMP280;47397;48.194;11.632;2023-04-06T03:40:24;96146.63;;;-1.92
61595;BMP280;47397;48.194;11.632;2023-04-06T03:41:24;96157.38;;;-1.93
61595;BMP280;47397;48.194;11.632;2023-04-06T03:42:25;96153.06;;;-1.98
61595;BMP280;47397;48.194;11.632;2023-04-06T03:43:25;96148.50;;;-1.84
61595;BMP280;47397;48.194;11.632;2023-04-06T03:44:26;96154.16;;;-1.89
61595;BMP280;47397;48.194;11.632;2023-04-06T03:45:26;96149.44;;;-1.81
61595;BMP280;47397;48.194;11.632;2023-04-06T03:46:26;96160.53;;;-1.98
61595;BMP280;47397;48.194;11.632;2023-04-06T03:47:27;96159.25;;;-1.85
61595;BMP280;47397;48.194;11.632;2023-04-06T03:48:27;96169.13;;;-1.89
61595;BMP280;47397;48.194;11.632;2023-04-06T03:49:28;96164.81;;;-1.94
61595;BMP280;47397;48.194;11.632;2023-04-06T03:50:28;96160.66;;;-1.94
61595;BMP280;47397;48.194;11.632;2023-04-06T03:51:29;96162.44;;;-1.90
61595;BMP280;47397;48.194;11.632;2023-04-06T03:52:29;96160.22;;;-1.80
61595;BMP280;47397;48.194;11.632;2023-04-06T03:53:29;96161.97;;;-1.78
61595;BMP280;47397;48.194;11.632;2023-04-06T03:54:31;96159.34;;;-1.82
61595;BMP280;47397;48.194;11.632;2023-04-06T03:55:32;96163.06;;;-1.97
61595;BMP280;47397;48.194;11.632;2023-04-06T03:56:32;96162.41;;;-1.91
61595;BMP280;47397;48.194;11.632;2023-04-06T03:59:10;96163.53;;;-1.81
61595;BMP280;47397;48.194;11.632;2023-04-06T04:00:12;96161.88;;;-1.81
61595;BMP280;47397;48.194;11.632;2023-04-06T04:02:50;96164.97;;;-1.88
61595;BMP280;47397;48.194;11.632;2023-04-06T04:03:51;96167.38;;;-1.91
61595;BMP280;47397;48.194;11.632;2023-04-06T04:04:51;96168.94;;;-1.95
61595;BMP280;47397;48.194;11.632;2023-04-06T04:05:51;96171.59;;;-1.89
61595;BMP280;47397;48.194;11.632;2023-04-06T04:06:52;96170.91;;;-1.84
61595;BMP280;47397;48.194;11.632;2023-04-06T04:07:52;96171.13;;;-1.77
61595;BMP280;47397;48.194;11.632;2023-04-06T04:08:53;96171.09;;;-1.78
61595;BMP280;47397;48.194;11.632;2023-04-06T04:09:54;96170.28;;;-2.06
61595;BMP280;47397;48.194;11.632;2023-04-06T04:10:55;96174.50;;;-2.03
61595;BMP280;47397;48.194;11.632;2023-04-06T04:11:55;96178.47;;;-2.10
61595;BMP280;47397;48.194;11.632;2023-04-06T04:12:56;96181.56;;;-2.18
61595;BMP280;47397;48.194;11.632;2023-04-06T04:13:56;96177.28;;;-2.23
61595;BMP280;47397;48.194;11.632;2023-04-06T04:14:57;96176.78;;;-2.11
61595;BMP280;47397;48.194;11.632;2023-04-06T04:15:57;96178.78;;;-1.99
61595;BMP280;47397;48.194;11.632;2023-04-06T04:16:57;96183.88;;;-1.95
61595;BMP280;47397;48.194;11.632;2023-04-06T04:17:58;96179.09;;;-1.89
61595;BMP280;47397;48.194;11.632;2023-04-06T04:18:58;96178.16;;;-1.92
61595;BMP280;47397;48.194;11.632;2023-04-06T04:19:59;96179.63;;;-1.99
61595;BMP280;47397;48.194;11.632;2023-04-06T04:20:59;96182.28;;;-1.93
61595;BMP280;47397;48.194;11.632;2023-04-06T04:22:00;96185.66;;;-1.91
61595;BMP280;47397;48.194;11.632;2023-04-06T04:24:37;96186.56;;;-2.17
61595;BMP280;47397;48.194;11.632;2023-04-06T04:25:40;96183.09;;;-2.22
61595;BMP280;47397;48.194;11.632;2023-04-06T04:26:40;96187.63;;;-2.09
61595;BMP280;47397;48.194;11.632;2023-04-06T04:27:41;96185.88;;;-2.13
61595;BMP280;47397;48.194;11.632;2023-04-06T04:28:41;96187.69;;;-2.07
61595;BMP280;47397;48.194;11.632;2023-04-06T04:29:42;96190.44;;;-1.98
61595;BMP280;47397;48.194;11.632;2023-04-06T04:30:42;96188.16;;;-1.91
61595;BMP280;47397;48.194;11.632;2023-04-06T04:31:43;96189.84;;;-1.90
61595;BMP280;47397;48.194;11.632;2023-04-06T04:32:43;96183.31;;;-1.86
61595;BMP280;47397;48.194;11.632;2023-04-06T04:33:44;96188.00;;;-1.97
61595;BMP280;47397;48.194;11.632;2023-04-06T04:34:44;96185.41;;;-2.00
61595;BMP280;47397;48.194;11.632;2023-04-06T04:35:44;96181.94;;;-2.05
61595;BMP280;47397;48.194;11.632;2023-04-06T04:36:45;96195.03;;;-2.12
61595;BMP280;47397;48.194;11.632;2023-04-06T04:37:45;96191.94;;;-2.03
61595;BMP280;47397;48.194;11.632;2023-04-06T04:38:46;96180.50;;;-1.97
61595;BMP280;47397;48.194;11.632;2023-04-06T04:39:46;96184.75;;;-1.94
61595;BMP280;47397;48.194;11.632;2023-04-06T04:40:48;96186.38;;;-1.95
61595;BMP280;47397;48.194;11.632;2023-04-06T04:41:48;96192.28;;;-1.91
61595;BMP280;47397;48.194;11.632;2023-04-06T04:42:49;96189.00;;;-1.90
61595;BMP280;47397;48.194;11.632;2023-04-06T04:43:49;96187.28;;;-1.93
61595;BMP280;47397;48.194;11.632;2023-04-06T04:44:50;96186.59;;;-1.87
61595;BMP280;47397;48.194;11.632;2023-04-06T04:45:50;96191.69;;;-1.84
61595;BMP280;47397;48.194;11.632;2023-04-06T04:46:52;96190.72;;;-1.88
61595;BMP280;47397;48.194;11.632;2023-04-06T04:47:52;96187.56;;;-1.83
61595;BMP280;47397;48.194;11.632;2023-04-06T04:48:53;96190.66;;;-1.91
61595;BMP280;47397;48.194;11.632;2023-04-06T04:49:53;96194.41;;;-2.05
61595;BMP280;47397;48.194;11.632;2023-04-06T04:50:53;96190.56;;;-1.94
61595;BMP280;47397;48.194;11.632;2023-04-06T04:51:54;96192.25;;;-1.93
61595;BMP280;47397;48.194;11.632;2023-04-06T04:52:56;96192.25;;;-1.93
61595;BMP280;47397;48.194;11.632;2023-04-06T04:53:56;96183.22;;;-1.89
61595;BMP280;47397;48.194;11.632;2023-04-06T04:54:57;96190.78;;;-1.86
61595;BMP280;47397;48.194;11.632;2023-04-06T04:55:58;96188.69;;;-2.01
61595;BMP280;47397;48.194;11.632;2023-04-06T04:56:59;96189.69;;;-1.96
61595;BMP280;47397;48.194;11.632;2023-04-06T04:58:02;96182.97;;;-1.98
61595;BMP280;47397;48.194;11.632;2023-04-06T04:59:03;96196.44;;;-1.92
61595;BMP280;47397;48.194;11.632;2023-04-06T05:01:41;96191.41;;;-1.93
61595;BMP280;47397;48.194;11.632;2023-04-06T05:02:41;96194.75;;;-1.93
61595;BMP280;47397;48.194;11.632;2023-04-06T05:03:42;96188.16;;;-1.91
61595;BMP280;47397;48.194;11.632;2023-04-06T05:04:42;96191.66;;;-1.85
61595;BMP280;47397;48.194;11.632;2023-04-06T05:05:43;96185.09;;;-1.82
61595;BMP280;47397;48.194;11.632;2023-04-06T05:06:43;96195.03;;;-1.83
61595;BMP280;47397;48.194;11.632;2023-04-06T05:07:44;96190.53;;;-1.95
61595;BMP280;47397;48.194;11.632;2023-04-06T05:08:44;96193.84;;;-1.95
61595;BMP280;47397;48.194;11.632;2023-04-06T05:09:45;96183.97;;;-1.92
61595;BMP280;47397;48.194;11.632;2023-04-06T05:10:45;96192.41;;;-1.86
61595;BMP280;47397;48.194;11.632;2023-04-06T05:11:47;96192.16;;;-1.96
61595;BMP280;47397;48.194;11.632;2023-04-06T05:12:47;96184.91;;;-1.88
61595;BMP280;47397;48.194;11.632;2023-04-06T05:13:48;96190.00;;;-1.85
61595;BMP280;47397;48.194;11.632;2023-04-06T05:14:48;96180.97;;;-1.81
61595;BMP280;47397;48.194;11.632;2023-04-06T05:15:49;96189.28;;;-1.81
61595;BMP280;47397;48.194;11.632;2023-04-06T05:16:49;96186.78;;;-1.81
61595;BMP280;47397;48.194;11.632;2023-04-06T05:17:50;96186.13;;;-1.45
61595;BMP280;47397;48.194;11.632;2023-04-06T05:18:51;96185.53;;;-1.05
61595;BMP280;47397;48.194;11.632;2023-04-06T05:19:51;96176.75;;;-0.19
61595;BMP280;47397;48.194;11.632;2023-04-06T05:20:51;96178.38;;;-0.91
61595;BMP280;47397;48.194;11.632;2023-04-06T05:21:52;96183.31;;;-1.26
61595;BMP280;47397;48.194;11.632;2023-04-06T05:22:53;96185.53;;;-1.37
61595;BMP280;47397;48.194;11.632;2023-04-06T05:23:53;96188.78;;;-1.39
61595;BMP280;47397;48.194;11.632;2023-04-06T05:24:54;96183.66;;;-1.44
61595;BMP280;47397;48.194;11.632;2023-04-06T05:25:54;96196.94;;;-1.45
61595;BMP280;47397;48.194;11.632;2023-04-06T05:26:56;96196.13;;;-1.44
61595;BMP280;47397;48.194;11.632;2023-04-06T05:27:57;96196.66;;;-1.54
61595;BMP280;47397;48.194;11.632;2023-04-06T05:28:57;96186.09;;;-1.47
61595;BMP280;47397;48.194;11.632;2023-04-06T05:29:58;96194.53;;;-1.42
61595;BMP280;47397;48.194;11.632;2023-04-06T05:30:59;96188.22;;;-1.59
61595;BMP280;47397;48.194;11.632;2023-04-06T05:31:59;96189.28;;;-1.51
61595;BMP280;47397;48.194;11.632;2023-04-06T05:33:00;96190.34;;;-1.43
61595;BMP280;47397;48.194;11.632;2023-04-06T05:34:00;96194.59;;;-1.39
61595;BMP280;47397;48.194;11.632;2023-04-06T05:35:01;96185.25;;;-1.47
61595;BMP280;47397;48.194;11.632;2023-04-06T05:36:01;96191.19;;;-1.42
61595;BMP280;47397;48.194;11.632;2023-04-06T05:37:02;96184.69;;;-1.37
61595;BMP280;47397;48.194;11.632;2023-04-06T05:38:02;96192.75;;;-1.46
61595;BMP280;47397;48.194;11.632;2023-04-06T05:39:03;96195.22;;;-1.47
61595;BMP280;47397;48.194;11.632;2023-04-06T05:40:04;96190.91;;;-1.51
61595;BMP280;47397;48.194;11.632;2023-04-06T05:41:05;96191.19;;;-1.42
61595;BMP280;47397;48.194;11.632;2023-04-06T05:42:07;96188.31;;;-1.56
61595;BMP280;47397;48.194;11.632;2023-04-06T05:43:07;96185.25;;;-1.47
61595;BMP280;47397;48.194;11.632;2023-04-06T05:44:08;96185.16;;;-1.49
61595;BMP280;47397;48.194;11.632;2023-04-06T05:45:10;96195.44;;;-1.38
61595;BMP280;47397;48.194;11.632;2023-04-06T05:46:10;96196.53;;;-1.29
61595;BMP280;47397;48.194;11.632;2023-04-06T05:47:11;96188.38;;;-1.23
61595;BMP280;47397;48.194;11.632;2023-04-06T05:48:11;96187.38;;;-1.30
61595;BMP280;47397;48.194;11.632;2023-04-06T05:49:12;96195.16;;;-1.17
61595;BMP280;47397;48.194;11.632;2023-04-06T05:50:14;96187.06;;;-1.10
61595;BMP280;47397;48.194;11.632;2023-04-06T05:51:14;96191.78;;;-1.19